createdAt,value
2023-08-12T00:01:33.823Z,18.50
2023-08-12T00:03:35.718Z,18.40
2023-08-12T00:05:38.159Z,18.40
2023-08-12T00:07:43.230Z,18.40
2023-08-12T00:09:44.995Z,18.40
2023-08-12T00:11:47.158Z,18.30
2023-08-12T00:13:48.937Z,18.30
2023-08-12T00:15:50.910Z,18.30
2023-08-12T00:17:53.482Z,18.30
2023-08-12T00:19:55.423Z,18.30
2023-08-12T00:21:57.226Z,18.30
2023-08-12T00:23:58.970Z,18.30
2023-08-12T00:26:00.736Z,18.20
2023-08-12T00:28:02.513Z,18.20
2023-08-12T00:30:05.446Z,18.20
2023-08-12T00:32:07.350Z,18.20
2023-08-12T00:34:09.136Z,18.10
2023-08-12T00:36:10.955Z,18.10
2023-08-12T00:38:12.766Z,18.10
2023-08-12T00:40:14.826Z,18.10
2023-08-12T00:42:16.655Z,18.00
2023-08-12T00:44:18.493Z,18.00
2023-08-12T00:46:20.444Z,18.00
2023-08-12T00:48:22.693Z,18.00
2023-08-12T00:50:24.691Z,17.90
2023-08-12T00:52:27.415Z,17.90
2023-08-12T00:54:29.196Z,17.90
2023-08-12T00:56:32.721Z,17.80
2023-08-12T00:58:34.956Z,17.80
2023-08-12T01:00:36.894Z,17.80
2023-08-12T01:02:39.330Z,17.80
2023-08-12T01:04:41.429Z,17.80
2023-08-12T01:06:43.244Z,17.70
2023-08-12T01:08:45.869Z,17.70
2023-08-12T01:10:53.717Z,17.70
2023-08-12T01:13:07.921Z,17.70
2023-08-12T01:15:14.430Z,17.70
2023-08-12T01:17:18.640Z,17.60
2023-08-12T01:19:40.156Z,17.60
2023-08-12T01:21:44.559Z,17.60
2023-08-12T01:23:47.259Z,17.60
2023-08-12T01:25:49.088Z,17.60
2023-08-12T01:27:50.972Z,17.50
2023-08-12T01:29:53.544Z,17.50
2023-08-12T01:32:19.683Z,17.50
2023-08-12T01:34:26.945Z,17.50
2023-08-12T01:36:33.012Z,17.40
2023-08-12T01:38:36.787Z,17.40
2023-08-12T01:40:41.287Z,17.40
2023-08-12T01:42:44.135Z,17.40
2023-08-12T01:44:46.464Z,17.40
2023-08-12T01:46:48.287Z,17.40
2023-08-12T01:48:50.119Z,17.30
2023-08-12T01:50:51.871Z,17.30
2023-08-12T01:52:53.703Z,17.30
2023-08-12T01:54:55.552Z,17.30
2023-08-12T01:56:57.339Z,17.30
2023-08-12T01:58:59.328Z,17.30
2023-08-12T02:01:01.128Z,17.30
2023-08-12T02:03:03.167Z,17.20
2023-08-12T02:05:05.444Z,17.20
2023-08-12T02:07:07.273Z,17.20
2023-08-12T02:09:09.083Z,17.20
2023-08-12T02:11:10.904Z,17.20
2023-08-12T02:13:12.685Z,17.20
2023-08-12T02:15:14.538Z,17.10
2023-08-12T02:17:16.557Z,17.10
2023-08-12T02:19:18.416Z,17.10
2023-08-12T02:21:20.219Z,17.10
2023-08-12T02:23:21.989Z,17.00
2023-08-12T02:25:23.793Z,17.00
2023-08-12T02:27:25.601Z,17.00
2023-08-12T02:29:27.338Z,17.00
2023-08-12T02:31:29.163Z,17.00
2023-08-12T02:33:30.930Z,17.00
2023-08-12T02:35:33.692Z,16.90
2023-08-12T02:37:35.373Z,16.90
2023-08-12T02:39:37.111Z,16.90
2023-08-12T02:41:38.886Z,16.80
2023-08-12T02:43:40.801Z,16.90
2023-08-12T02:45:42.586Z,16.80
2023-08-12T02:47:44.449Z,16.80
2023-08-12T02:49:46.261Z,16.80
2023-08-12T02:51:48.087Z,16.80
2023-08-12T02:53:49.929Z,16.80
2023-08-12T02:55:51.700Z,16.80
2023-08-12T02:57:53.489Z,16.70
2023-08-12T02:59:55.337Z,16.70
2023-08-12T03:01:57.086Z,16.70
2023-08-12T03:03:58.950Z,16.70
2023-08-12T03:06:00.770Z,16.70
2023-08-12T03:08:04.769Z,16.70
2023-08-12T03:10:07.249Z,16.60
2023-08-12T03:12:09.082Z,16.70
2023-08-12T03:14:10.947Z,16.60
2023-08-12T03:16:14.830Z,16.60
2023-08-12T03:18:16.925Z,16.60
2023-08-12T03:20:18.776Z,16.60
2023-08-12T03:22:20.678Z,16.60
2023-08-12T03:24:22.542Z,16.50
2023-08-12T03:26:24.357Z,16.50
2023-08-12T03:28:26.124Z,16.50
2023-08-12T03:30:27.942Z,16.50
2023-08-12T03:32:29.735Z,16.50
2023-08-12T03:34:31.490Z,16.40
2023-08-12T03:36:33.240Z,16.40
2023-08-12T03:38:37.062Z,16.40
2023-08-12T03:40:39.884Z,16.40
2023-08-12T03:42:41.781Z,16.40
2023-08-12T03:44:44.417Z,16.40
2023-08-12T03:46:46.332Z,16.40
2023-08-12T03:48:48.217Z,16.30
2023-08-12T03:50:50.570Z,16.30
2023-08-12T03:52:52.390Z,16.20
2023-08-12T03:54:54.485Z,16.30
2023-08-12T03:56:56.308Z,16.20
2023-08-12T03:58:58.293Z,16.20
2023-08-12T04:01:00.109Z,16.20
2023-08-12T04:03:02.205Z,16.20
2023-08-12T04:05:04.216Z,16.20
2023-08-12T04:07:06.003Z,16.20
2023-08-12T04:09:07.846Z,16.10
2023-08-12T04:11:09.588Z,16.20
2023-08-12T04:13:11.364Z,16.20
2023-08-12T04:15:13.156Z,16.20
2023-08-12T04:17:15.273Z,16.10
2023-08-12T04:19:17.219Z,16.10
2023-08-12T04:21:19.003Z,16.10
2023-08-12T04:23:21.316Z,16.10
2023-08-12T04:25:23.692Z,16.10
2023-08-12T04:27:25.478Z,16.10
2023-08-12T04:29:27.300Z,16.10
2023-08-12T04:31:29.109Z,16.10
2023-08-12T04:33:31.114Z,16.10
2023-08-12T04:35:33.667Z,16.10
2023-08-12T04:37:36.605Z,16.10
2023-08-12T04:39:38.410Z,16.10
2023-08-12T04:41:40.181Z,16.10
2023-08-12T04:43:42.171Z,16.10
2023-08-12T04:45:47.107Z,16.10
2023-08-12T04:47:48.991Z,16.10
2023-08-12T04:49:50.878Z,16.10
2023-08-12T04:51:53.919Z,16.10
2023-08-12T04:53:55.702Z,16.10
2023-08-12T04:55:57.949Z,16.10
2023-08-12T04:57:59.810Z,16.20
2023-08-12T05:00:01.672Z,16.20
2023-08-12T05:02:05.221Z,16.30
2023-08-12T05:04:19.790Z,16.30
2023-08-12T05:06:21.592Z,16.30
2023-08-12T05:08:23.424Z,16.40
2023-08-12T05:10:25.237Z,16.40
2023-08-12T05:12:27.104Z,16.50
2023-08-12T05:14:28.929Z,16.50
2023-08-12T05:16:30.828Z,16.50
2023-08-12T05:18:32.893Z,16.60
2023-08-12T05:20:34.666Z,16.60
2023-08-12T05:22:36.422Z,16.70
2023-08-12T05:24:38.327Z,16.70
2023-08-12T05:26:40.069Z,16.80
2023-08-12T05:28:41.902Z,16.90
2023-08-12T05:30:43.658Z,16.90
2023-08-12T05:32:45.425Z,17.00
2023-08-12T05:34:47.225Z,17.00
2023-08-12T05:36:49.004Z,17.10
2023-08-12T05:38:50.871Z,17.10
2023-08-12T05:40:52.644Z,17.20
2023-08-12T05:42:54.481Z,17.30
2023-08-12T05:44:56.274Z,17.30
2023-08-12T05:46:58.045Z,17.40
2023-08-12T05:48:59.825Z,17.50
2023-08-12T05:51:01.605Z,17.60
2023-08-12T05:53:03.437Z,17.70
2023-08-12T05:55:05.849Z,17.70
2023-08-12T05:57:07.622Z,17.80
2023-08-12T05:59:09.469Z,17.90
2023-08-12T06:01:11.617Z,18.00
2023-08-12T06:03:14.029Z,18.00
2023-08-12T06:05:15.861Z,18.10
2023-08-12T06:07:17.663Z,18.20
2023-08-12T06:09:19.455Z,18.20
2023-08-12T06:11:21.235Z,18.30
2023-08-12T06:13:23.023Z,18.40
2023-08-12T06:15:24.821Z,18.50
2023-08-12T06:17:26.593Z,18.60
2023-08-12T06:19:28.382Z,18.70
2023-08-12T06:21:30.433Z,18.70
2023-08-12T06:23:32.362Z,18.80
2023-08-12T06:25:34.261Z,18.90
2023-08-12T06:27:36.039Z,19.00
2023-08-12T06:29:37.797Z,19.10
2023-08-12T06:31:40.680Z,19.20
2023-08-12T06:33:42.519Z,19.30
2023-08-12T06:35:46.235Z,19.40
2023-08-12T06:37:49.442Z,19.60
2023-08-12T06:39:51.789Z,19.70
2023-08-12T06:41:53.661Z,19.80
2023-08-12T06:43:55.437Z,19.90
2023-08-12T06:45:57.506Z,20.00
2023-08-12T06:47:59.362Z,20.10
2023-08-12T06:50:01.288Z,20.20
2023-08-12T06:52:03.179Z,20.30
2023-08-12T06:54:05.704Z,20.40
2023-08-12T06:56:07.779Z,20.50
2023-08-12T06:58:09.555Z,20.60
2023-08-12T07:00:11.766Z,20.70
2023-08-12T07:02:14.126Z,20.80
2023-08-12T07:04:16.054Z,20.90
2023-08-12T07:06:17.825Z,21.00
2023-08-12T07:08:19.763Z,21.00
2023-08-12T07:10:23.974Z,21.20
2023-08-12T07:12:26.043Z,21.20
2023-08-12T07:14:29.130Z,21.30
2023-08-12T07:16:30.904Z,21.40
2023-08-12T07:18:32.710Z,21.50
2023-08-12T07:20:34.491Z,21.60
2023-08-12T07:22:36.567Z,21.70
2023-08-12T07:24:38.309Z,21.90
2023-08-12T07:26:40.066Z,22.00
2023-08-12T07:28:42.541Z,22.10
2023-08-12T07:30:44.492Z,22.20
2023-08-12T07:32:46.345Z,22.30
2023-08-12T07:34:48.161Z,22.40
2023-08-12T07:36:49.921Z,22.50
2023-08-12T07:38:51.715Z,22.60
2023-08-12T07:40:54.785Z,22.70
2023-08-12T07:42:56.551Z,22.80
2023-08-12T07:44:58.331Z,22.90
2023-08-12T07:47:00.146Z,23.00
2023-08-12T07:49:01.926Z,23.10
2023-08-12T07:51:03.825Z,23.20
2023-08-12T07:53:05.636Z,23.40
2023-08-12T07:55:07.707Z,23.50
2023-08-12T07:57:09.493Z,23.60
2023-08-12T07:59:11.509Z,23.70
2023-08-12T08:01:14.035Z,23.80
2023-08-12T08:03:15.932Z,23.90
2023-08-12T08:05:17.956Z,24.10
2023-08-12T08:07:19.846Z,24.10
2023-08-12T08:09:21.627Z,24.20
2023-08-12T08:11:24.780Z,24.40
2023-08-12T08:13:26.534Z,24.50
2023-08-12T08:15:28.334Z,24.60
2023-08-12T08:17:30.719Z,24.70
2023-08-12T08:19:32.668Z,24.90
2023-08-12T08:21:34.487Z,25.00
2023-08-12T08:23:36.242Z,25.10
2023-08-12T08:25:38.183Z,25.20
2023-08-12T08:27:42.834Z,25.30
2023-08-12T08:29:46.238Z,25.30
2023-08-12T08:31:48.110Z,25.40
2023-08-12T08:33:49.903Z,25.50
2023-08-12T08:35:51.664Z,25.50
2023-08-12T08:37:54.574Z,25.60
2023-08-12T08:39:56.424Z,25.70
2023-08-12T08:41:59.926Z,25.70
2023-08-12T08:44:08.321Z,25.80
2023-08-12T08:46:10.370Z,25.90
2023-08-12T08:48:13.075Z,26.00
2023-08-12T08:50:16.332Z,26.10
2023-08-12T08:52:19.882Z,26.20
2023-08-12T08:54:22.169Z,26.30
2023-08-12T08:56:25.245Z,26.50
2023-08-12T08:58:28.641Z,26.60
2023-08-12T09:00:30.740Z,26.70
2023-08-12T09:02:32.964Z,26.70
2023-08-12T09:04:35.484Z,26.80
2023-08-12T09:06:37.626Z,26.80
2023-08-12T09:08:45.580Z,26.80
2023-08-12T09:10:49.271Z,26.90
2023-08-12T09:12:53.873Z,27.00
2023-08-12T09:14:55.710Z,27.00
2023-08-12T09:16:58.249Z,27.10
2023-08-12T09:18:59.935Z,27.20
2023-08-12T09:21:02.262Z,27.30
2023-08-12T09:23:04.538Z,27.30
2023-08-12T09:25:07.021Z,27.30
2023-08-12T09:27:08.858Z,27.40
2023-08-12T09:29:10.702Z,27.40
2023-08-12T09:31:33.599Z,27.40
2023-08-12T09:33:41.019Z,27.50
2023-08-12T09:35:44.210Z,27.50
2023-08-12T09:37:46.057Z,27.50
2023-08-12T09:39:49.832Z,27.50
2023-08-12T09:41:52.769Z,27.50
2023-08-12T09:43:54.621Z,27.50
2023-08-12T09:46:02.311Z,27.60
2023-08-12T09:48:04.656Z,27.60
2023-08-12T09:50:06.676Z,27.70
2023-08-12T09:52:09.649Z,27.80
2023-08-12T09:54:13.874Z,27.90
2023-08-12T09:56:20.849Z,28.00
2023-08-12T09:58:25.275Z,28.10
2023-08-12T10:00:27.247Z,28.10
2023-08-12T10:02:29.641Z,28.10
2023-08-12T10:04:45.792Z,28.20
2023-08-12T10:06:48.927Z,28.20
2023-08-12T10:08:51.748Z,28.20
2023-08-12T10:11:07.321Z,28.20
2023-08-12T10:13:13.812Z,28.20
2023-08-12T10:15:16.594Z,28.20
2023-08-12T10:17:29.826Z,28.30
2023-08-12T10:19:46.217Z,28.30
2023-08-12T10:21:50.792Z,28.30
2023-08-12T10:23:53.478Z,28.30
2023-08-12T10:25:58.385Z,28.30
2023-08-12T10:28:00.167Z,28.30
2023-08-12T10:30:06.615Z,28.30
2023-08-12T10:32:09.756Z,28.40
2023-08-12T10:34:25.837Z,28.40
2023-08-12T10:36:28.328Z,28.50
2023-08-12T10:38:30.240Z,28.50
2023-08-12T10:40:32.088Z,28.60
2023-08-12T10:42:48.420Z,28.60
2023-08-12T10:44:53.452Z,28.70
2023-08-12T10:46:55.836Z,28.60
2023-08-12T10:49:18.497Z,28.70
2023-08-12T10:51:43.729Z,28.70
2023-08-12T10:53:49.723Z,28.70
2023-08-12T10:55:52.070Z,28.70
2023-08-12T10:57:57.289Z,28.80
2023-08-12T10:59:59.471Z,28.80
2023-08-12T11:02:14.364Z,28.90
2023-08-12T11:04:20.275Z,29.00
2023-08-12T11:06:22.174Z,29.00
2023-08-12T11:08:30.323Z,29.00
2023-08-12T11:10:34.864Z,29.00
2023-08-12T11:12:37.591Z,29.10
2023-08-12T11:14:50.234Z,29.00
2023-08-12T11:16:54.296Z,29.00
2023-08-12T11:18:56.993Z,29.00
2023-08-12T11:20:59.344Z,29.00
2023-08-12T11:23:01.999Z,29.10
2023-08-12T11:25:05.747Z,29.10
2023-08-12T11:27:10.764Z,29.20
2023-08-12T11:29:13.637Z,29.20
2023-08-12T11:31:15.454Z,29.20
2023-08-12T11:33:19.858Z,29.20
2023-08-12T11:35:23.384Z,29.20
2023-08-12T11:37:25.197Z,29.30
2023-08-12T11:39:27.722Z,29.40
2023-08-12T11:41:29.394Z,29.40
2023-08-12T11:43:33.718Z,29.40
2023-08-12T11:45:35.592Z,29.40
2023-08-12T11:47:39.139Z,29.60
2023-08-12T11:49:40.894Z,29.70
2023-08-12T11:51:45.720Z,29.70
2023-08-12T11:53:47.486Z,29.80
2023-08-12T11:55:49.384Z,29.70
2023-08-12T11:57:53.180Z,29.80
2023-08-12T12:00:14.460Z,29.80
2023-08-12T12:02:17.118Z,29.90
2023-08-12T12:04:21.977Z,30.00
2023-08-12T12:06:50.429Z,29.90
2023-08-12T12:08:54.691Z,29.90
2023-08-12T12:10:56.490Z,29.90
2023-08-12T12:12:59.807Z,30.00
2023-08-12T12:15:02.141Z,30.00
2023-08-12T12:17:08.948Z,30.10
2023-08-12T12:19:20.718Z,30.30
2023-08-12T12:21:23.859Z,30.30
2023-08-12T12:23:32.571Z,30.40
2023-08-12T12:25:34.336Z,30.40
2023-08-12T12:27:38.233Z,30.40
2023-08-12T12:29:40.060Z,30.50
2023-08-12T12:31:42.855Z,30.50
2023-08-12T12:33:44.627Z,30.50
2023-08-12T12:35:56.713Z,30.60
2023-08-12T12:38:00.830Z,30.70
2023-08-12T12:40:04.150Z,30.70
2023-08-12T12:42:06.083Z,30.80
2023-08-12T12:44:07.924Z,30.90
2023-08-12T12:46:09.787Z,31.00
2023-08-12T12:48:11.993Z,31.10
2023-08-12T12:50:13.813Z,31.20
2023-08-12T12:52:15.802Z,31.20
2023-08-12T12:54:18.357Z,31.30
2023-08-12T12:56:20.183Z,31.40
2023-08-12T12:58:24.377Z,31.50
2023-08-12T13:00:27.269Z,31.60
2023-08-12T13:02:29.173Z,31.80
2023-08-12T13:04:31.089Z,31.90
2023-08-12T13:06:32.872Z,32.10
2023-08-12T13:08:34.673Z,32.10
2023-08-12T13:10:36.462Z,32.30
2023-08-12T13:12:38.254Z,32.40
2023-08-12T13:14:40.007Z,32.40
2023-08-12T13:16:41.768Z,32.50
2023-08-12T13:18:44.322Z,32.60
2023-08-12T13:20:46.028Z,32.80
2023-08-12T13:22:47.804Z,32.70
2023-08-12T13:24:49.560Z,32.60
2023-08-12T13:26:53.688Z,32.60
2023-08-12T13:28:55.707Z,32.50
2023-08-12T13:30:57.974Z,32.30
2023-08-12T13:33:01.738Z,32.20
2023-08-12T13:35:04.688Z,32.10
2023-08-12T13:37:06.795Z,31.90
2023-08-12T13:39:08.616Z,31.90
2023-08-12T13:41:10.425Z,31.90
2023-08-12T13:43:12.193Z,31.90
2023-08-12T13:45:14.671Z,31.90
2023-08-12T13:47:16.465Z,32.00
2023-08-12T13:49:18.257Z,32.10
2023-08-12T13:51:20.126Z,32.10
2023-08-12T13:53:21.943Z,32.10
2023-08-12T13:55:23.791Z,32.10
2023-08-12T13:57:25.531Z,32.20
2023-08-12T13:59:27.366Z,32.20
2023-08-12T14:01:29.172Z,32.40
2023-08-12T14:03:31.819Z,32.50
2023-08-12T14:05:33.696Z,32.70
2023-08-12T14:07:35.773Z,32.90
2023-08-12T14:09:37.517Z,33.10
2023-08-12T14:11:39.297Z,33.40
2023-08-12T14:13:41.086Z,33.50
2023-08-12T14:15:42.868Z,33.60
2023-08-12T14:17:44.671Z,33.50
2023-08-12T14:19:50.373Z,33.50
2023-08-12T14:21:52.237Z,33.50
2023-08-12T14:23:54.018Z,33.70
2023-08-12T14:25:55.800Z,33.90
2023-08-12T14:27:57.590Z,34.00
2023-08-12T14:29:59.352Z,34.10
2023-08-12T14:32:01.285Z,34.30
2023-08-12T14:34:04.470Z,34.30
2023-08-12T14:36:07.113Z,34.20
2023-08-12T14:38:08.881Z,34.10
2023-08-12T14:40:11.015Z,34.00
2023-08-12T14:42:12.942Z,33.80
2023-08-12T14:44:16.685Z,33.70
2023-08-12T14:46:18.538Z,33.60
2023-08-12T14:48:20.444Z,33.50
2023-08-12T14:50:22.254Z,33.40
2023-08-12T14:52:24.091Z,33.30
2023-08-12T14:54:25.934Z,33.20
2023-08-12T14:56:27.953Z,33.00
2023-08-12T14:58:29.776Z,32.80
2023-08-12T15:00:31.765Z,32.60
2023-08-12T15:02:33.695Z,32.50
2023-08-12T15:04:36.154Z,32.20
2023-08-12T15:06:37.845Z,32.20
2023-08-12T15:08:39.837Z,32.00
2023-08-12T15:10:41.618Z,31.80
2023-08-12T15:12:43.407Z,31.70
2023-08-12T15:14:45.692Z,31.60
2023-08-12T15:16:47.699Z,31.50
2023-08-12T15:18:49.541Z,31.40
2023-08-12T15:20:51.415Z,31.20
2023-08-12T15:22:53.208Z,31.00
2023-08-12T15:24:55.079Z,30.80
2023-08-12T15:26:56.932Z,30.60
2023-08-12T15:28:58.680Z,30.50
2023-08-12T15:31:00.490Z,30.50
2023-08-12T15:33:02.774Z,30.40
2023-08-12T15:35:04.854Z,30.40
2023-08-12T15:37:06.900Z,30.30
2023-08-12T15:39:09.221Z,30.20
2023-08-12T15:41:15.675Z,30.40
2023-08-12T15:43:17.487Z,30.70
2023-08-12T15:45:19.381Z,31.00
2023-08-12T15:47:21.250Z,31.10
2023-08-12T15:49:23.069Z,31.10
2023-08-12T15:51:24.848Z,31.10
2023-08-12T15:53:26.617Z,31.00
2023-08-12T15:55:28.676Z,31.00
2023-08-12T15:57:30.541Z,31.00
2023-08-12T15:59:32.336Z,31.00
2023-08-12T16:01:34.724Z,31.00
2023-08-12T16:03:36.724Z,31.00
2023-08-12T16:05:38.571Z,30.90
2023-08-12T16:07:40.477Z,30.80
2023-08-12T16:09:42.400Z,30.80
2023-08-12T16:11:44.350Z,30.90
2023-08-12T16:13:46.095Z,31.20
2023-08-12T16:15:48.188Z,31.60
2023-08-12T16:17:49.990Z,32.00
2023-08-12T16:19:51.774Z,32.30
2023-08-12T16:21:53.606Z,32.70
2023-08-12T16:23:55.402Z,33.10
2023-08-12T16:25:57.183Z,33.50
2023-08-12T16:27:58.966Z,33.90
2023-08-12T16:30:00.760Z,34.40
2023-08-12T16:32:02.562Z,34.80
2023-08-12T16:34:04.412Z,35.20
2023-08-12T16:36:06.284Z,35.50
2023-08-12T16:38:08.083Z,35.80
2023-08-12T16:40:11.121Z,35.90
2023-08-12T16:42:13.223Z,35.60
2023-08-12T16:44:15.160Z,35.30
2023-08-12T16:46:16.948Z,34.80
2023-08-12T16:48:19.203Z,34.30
2023-08-12T16:50:20.978Z,33.90
2023-08-12T16:52:22.844Z,33.70
2023-08-12T16:54:24.620Z,33.40
2023-08-12T16:56:26.391Z,33.00
2023-08-12T16:58:28.163Z,32.80
2023-08-12T17:00:30.023Z,32.60
2023-08-12T17:02:32.276Z,32.40
2023-08-12T17:04:34.089Z,32.30
2023-08-12T17:06:36.049Z,32.30
2023-08-12T17:08:37.958Z,32.30
2023-08-12T17:10:40.362Z,32.30
2023-08-12T17:12:42.135Z,32.40
2023-08-12T17:14:43.920Z,32.40
2023-08-12T17:16:45.822Z,32.40
2023-08-12T17:18:47.680Z,32.40
2023-08-12T17:20:49.474Z,32.40
2023-08-12T17:22:51.223Z,32.20
2023-08-12T17:24:53.049Z,32.10
2023-08-12T17:26:54.863Z,31.90
2023-08-12T17:28:56.620Z,31.70
2023-08-12T17:30:58.450Z,31.50
2023-08-12T17:33:00.413Z,31.40
2023-08-12T17:35:02.283Z,31.20
2023-08-12T17:37:04.301Z,31.00
2023-08-12T17:39:06.190Z,30.90
2023-08-12T17:41:08.066Z,30.70
2023-08-12T17:43:09.855Z,30.50
2023-08-12T17:45:12.102Z,30.30
2023-08-12T17:47:13.900Z,30.10
2023-08-12T17:49:15.690Z,29.90
2023-08-12T17:51:18.346Z,29.70
2023-08-12T17:53:20.236Z,29.60
2023-08-12T17:55:22.305Z,29.50
2023-08-12T17:57:24.191Z,29.30
2023-08-12T17:59:25.978Z,29.20
2023-08-12T18:01:27.992Z,29.10
2023-08-12T18:03:29.945Z,29.00
2023-08-12T18:05:31.768Z,28.90
2023-08-12T18:07:33.752Z,28.80
2023-08-12T18:09:35.557Z,28.70
2023-08-12T18:11:37.356Z,28.60
2023-08-12T18:13:39.150Z,28.50
2023-08-12T18:15:41.065Z,28.40
2023-08-12T18:17:42.861Z,28.30
2023-08-12T18:19:45.803Z,28.20
2023-08-12T18:21:47.600Z,28.10
2023-08-12T18:23:49.390Z,28.00
2023-08-12T18:25:51.492Z,27.90
2023-08-12T18:27:53.338Z,27.80
2023-08-12T18:29:55.093Z,27.60
2023-08-12T18:31:56.975Z,27.60
2023-08-12T18:33:58.752Z,27.50
2023-08-12T18:36:00.547Z,27.40
2023-08-12T18:38:02.392Z,27.20
2023-08-12T18:40:04.652Z,27.10
2023-08-12T18:42:06.510Z,27.00
2023-08-12T18:44:08.331Z,26.90
2023-08-12T18:46:10.255Z,26.80
2023-08-12T18:48:12.143Z,26.70
2023-08-12T18:50:13.959Z,26.60
2023-08-12T18:52:16.374Z,26.50
2023-08-12T18:54:18.378Z,26.40
2023-08-12T18:56:20.290Z,26.20
2023-08-12T18:58:22.111Z,26.20
2023-08-12T19:00:24.516Z,26.00
2023-08-12T19:02:26.361Z,25.90
2023-08-12T19:04:28.185Z,25.80
2023-08-12T19:06:30.002Z,25.70
2023-08-12T19:08:32.023Z,25.60
2023-08-12T19:10:33.862Z,25.60
2023-08-12T19:12:35.714Z,25.50
2023-08-12T19:14:37.540Z,25.40
2023-08-12T19:16:39.364Z,25.40
2023-08-12T19:18:41.143Z,25.40
2023-08-12T19:20:43.485Z,25.30
2023-08-12T19:22:45.279Z,25.20
2023-08-12T19:24:47.128Z,25.20
2023-08-12T19:26:48.920Z,25.10
2023-08-12T19:28:51.781Z,25.00
2023-08-12T19:30:53.595Z,25.00
2023-08-12T19:32:56.236Z,24.90
2023-08-12T19:34:58.142Z,24.80
2023-08-12T19:37:00.227Z,24.70
2023-08-12T19:39:02.047Z,24.60
2023-08-12T19:41:04.743Z,24.60
2023-08-12T19:43:06.629Z,24.60
2023-08-12T19:45:09.210Z,24.50
2023-08-12T19:47:11.092Z,24.40
2023-08-12T19:49:12.844Z,24.40
2023-08-12T19:51:14.674Z,24.40
2023-08-12T19:53:16.855Z,24.40
2023-08-12T19:55:19.451Z,24.30
2023-08-12T19:57:21.361Z,24.30
2023-08-12T19:59:23.152Z,24.20
2023-08-12T20:01:25.070Z,24.10
2023-08-12T20:03:26.998Z,24.10
2023-08-12T20:05:31.720Z,24.10
2023-08-12T20:07:33.471Z,24.10
2023-08-12T20:09:35.212Z,24.00
2023-08-12T20:11:36.985Z,24.00
2023-08-12T20:13:38.799Z,23.90
2023-08-12T20:15:40.693Z,23.90
2023-08-12T20:17:43.972Z,23.90
2023-08-12T20:19:46.169Z,23.80
2023-08-12T20:21:50.330Z,23.70
2023-08-12T20:23:52.122Z,23.70
2023-08-12T20:25:53.983Z,23.70
2023-08-12T20:27:56.999Z,23.60
2023-08-12T20:29:58.822Z,23.50
2023-08-12T20:32:00.662Z,23.50
2023-08-12T20:34:02.510Z,23.50
2023-08-12T20:36:04.665Z,23.40
2023-08-12T20:38:06.555Z,23.40
2023-08-12T20:40:09.110Z,23.30
2023-08-12T20:42:10.975Z,23.30
2023-08-12T20:44:12.782Z,23.30
2023-08-12T20:46:14.737Z,23.30
2023-08-12T20:48:17.006Z,23.20
2023-08-12T20:50:19.060Z,23.20
2023-08-12T20:52:20.865Z,23.10
2023-08-12T20:54:23.060Z,23.10
2023-08-12T20:56:25.339Z,23.10
2023-08-12T20:58:27.090Z,23.00
2023-08-12T21:00:29.565Z,23.00
2023-08-12T21:02:31.417Z,23.00
2023-08-12T21:04:33.186Z,22.90
2023-08-12T21:06:34.986Z,22.90
2023-08-12T21:08:36.827Z,22.90
2023-08-12T21:10:38.664Z,22.90
2023-08-12T21:12:40.508Z,22.80
2023-08-12T21:14:42.348Z,22.90
2023-08-12T21:16:44.152Z,22.80
2023-08-12T21:18:45.922Z,22.80
2023-08-12T21:20:47.714Z,22.80
2023-08-12T21:22:50.000Z,22.80
2023-08-12T21:24:52.548Z,22.80
2023-08-12T21:26:54.733Z,22.80
2023-08-12T21:28:56.504Z,22.80
2023-08-12T21:30:58.326Z,22.80
2023-08-12T21:33:00.214Z,22.80
2023-08-12T21:35:02.261Z,22.80
2023-08-12T21:37:04.114Z,22.80
2023-08-12T21:39:06.195Z,22.80
2023-08-12T21:41:08.082Z,22.80
2023-08-12T21:43:09.862Z,22.80
2023-08-12T21:45:12.214Z,22.80
2023-08-12T21:47:14.062Z,22.80
2023-08-12T21:49:15.886Z,22.80
2023-08-12T21:51:23.450Z,22.80
2023-08-12T21:53:25.257Z,22.80
2023-08-12T21:55:27.038Z,22.80
2023-08-12T21:57:28.805Z,22.80
2023-08-12T21:59:30.566Z,22.80
2023-08-12T22:01:32.379Z,22.80
2023-08-12T22:03:34.163Z,22.80
2023-08-12T22:05:36.039Z,22.80
2023-08-12T22:07:37.956Z,22.80
2023-08-12T22:09:39.703Z,22.80
2023-08-12T22:11:41.514Z,22.80
2023-08-12T22:13:43.331Z,22.80
2023-08-12T22:15:45.251Z,22.80
2023-08-12T22:17:48.873Z,22.80
2023-08-12T22:19:50.745Z,22.80
2023-08-12T22:21:55.739Z,22.80
2023-08-12T22:24:01.805Z,22.80
2023-08-12T22:26:04.044Z,22.80
2023-08-12T22:28:06.316Z,22.90
2023-08-12T22:30:09.372Z,22.90
2023-08-12T22:32:11.533Z,22.90
2023-08-12T22:34:13.673Z,22.90
2023-08-12T22:36:15.522Z,22.90
2023-08-12T22:38:17.368Z,23.00
2023-08-12T22:40:19.354Z,22.90
2023-08-12T22:42:21.119Z,23.00
2023-08-12T22:44:22.907Z,23.00
2023-08-12T22:46:24.768Z,22.90
2023-08-12T22:48:26.532Z,22.90
2023-08-12T22:50:28.304Z,22.90
2023-08-12T22:52:30.150Z,22.90
2023-08-12T22:54:31.915Z,22.80
2023-08-12T22:56:34.347Z,22.80
2023-08-12T22:58:36.107Z,22.80
2023-08-12T23:00:37.903Z,22.80
2023-08-12T23:02:39.801Z,22.80
2023-08-12T23:04:41.765Z,22.70
2023-08-12T23:06:43.662Z,22.70
2023-08-12T23:08:45.936Z,22.70
2023-08-12T23:10:47.750Z,22.70
2023-08-12T23:12:49.777Z,22.60
2023-08-12T23:14:51.549Z,22.60
2023-08-12T23:16:53.439Z,22.60
2023-08-12T23:18:55.267Z,22.60
2023-08-12T23:20:57.412Z,22.50
2023-08-12T23:22:59.155Z,22.40
2023-08-12T23:25:01.062Z,22.40
2023-08-12T23:27:02.928Z,22.40
2023-08-12T23:29:04.840Z,22.30
2023-08-12T23:31:07.161Z,22.30
2023-08-12T23:33:09.044Z,22.30
2023-08-12T23:35:14.493Z,22.30
2023-08-12T23:37:16.295Z,22.30
2023-08-12T23:39:18.654Z,22.20
2023-08-12T23:41:20.432Z,22.20
2023-08-12T23:43:22.205Z,22.10
2023-08-12T23:45:23.975Z,22.10
2023-08-12T23:47:25.807Z,22.10
2023-08-12T23:49:27.578Z,22.10
2023-08-12T23:51:29.367Z,22.00
2023-08-12T23:53:31.169Z,22.00
2023-08-12T23:55:32.929Z,22.00
2023-08-12T23:57:34.815Z,21.90
2023-08-12T23:59:36.594Z,21.90
